Time;durP1;ratioP1;P1;durP2;ratioP2;P2;SDS_P1;SDS_P2;PMS_P1;PMS_P2;Temp;Humidity;BMP_temperature;BMP_pressure;BME280_temperature;BME280_humidity;BME280_pressure;Samples;Min_cycle;Max_cycle;Signal;HPM_P1;HPM_P2
2021/10/01 00:02:29;;;;;;;13.80;9.43;;;;;;;;;;5070819;28;20387;-70
2021/10/01 00:08:09;;;;;;;12.15;8.05;;;;;;;;;;5111105;27;20449;-67
2021/10/01 00:13:33;;;;;;;12.85;8.65;;;;;;;;;;5111658;27;20401;-67
2021/10/01 00:17:36;;;;;;;11.52;8.25;;;;;;;;;;5110863;27;20400;-70
2021/10/01 00:20:02;;;;;;;13.60;8.65;;;;;;;;;;5111079;28;20024;-67
2021/10/01 00:22:28;;;;;;;12.90;8.30;;;;;;;;;;5111105;28;20492;-67
2021/10/01 00:24:55;;;;;;;18.65;9.18;;;;;;;;;;5109397;28;20388;-67
2021/10/01 00:27:21;;;;;;;13.23;8.60;;;;;;;;;;5110948;28;20032;-67
2021/10/01 00:31:26;;;;;;;13.35;9.45;;;;;;;;;;5110994;27;20920;-67
2021/10/01 00:37:44;;;;;;;13.38;8.70;;;;;;;;;;5071288;28;20407;-67
2021/10/01 00:40:11;;;;;;;16.05;10.32;;;;;;;;;;5070261;28;20365;-67
2021/10/01 00:43:07;;;;;;;13.48;9.40;;;;;;;;;;5111192;27;20384;-67
2021/10/01 00:46:16;;;;;;;13.35;8.65;;;;;;;;;;5111105;27;20458;-69
2021/10/01 00:48:42;;;;;;;17.20;10.02;;;;;;;;;;5111377;28;20480;-69
2021/10/01 00:51:08;;;;;;;13.30;9.50;;;;;;;;;;5111161;28;20028;-67
2021/10/01 00:54:06;;;;;;;14.55;9.30;;;;;;;;;;5110930;27;20520;-67
2021/10/01 00:56:32;;;;;;;14.30;9.45;;;;;;;;;;5111258;28;20024;-68
2021/10/01 00:58:58;;;;;;;15.40;9.52;;;;;;;;;;5110004;28;20055;-68
2021/10/01 01:02:38;;;;;;;13.80;8.70;;;;;;;;;;5091091;28;20455;-67
2021/10/01 01:07:49;;;;;;;13.18;9.02;;;;;;;;;;5110962;27;20528;-67
2021/10/01 01:12:05;;;;;;;11.70;7.47;;;;;;;;;;5111198;27;20404;-67
2021/10/01 01:17:46;;;;;;;12.50;7.90;;;;;;;;;;5111556;27;20904;-69
2021/10/01 01:20:18;;;;;;;13.13;8.07;;;;;;;;;;5111122;28;20047;-67
2021/10/01 01:22:53;;;;;;;12.63;7.72;;;;;;;;;;5110772;28;20028;-69
2021/10/01 01:25:34;;;;;;;13.63;9.38;;;;;;;;;;5111157;28;20533;-69
2021/10/01 01:32:40;;;;;;;13.32;8.13;;;;;;;;;;5111326;27;20421;-67
2021/10/01 01:38:39;;;;;;;12.63;8.70;;;;;;;;;;5111408;27;20313;-67
2021/10/01 01:41:06;;;;;;;12.18;8.10;;;;;;;;;;5111223;28;20038;-67
2021/10/01 01:43:34;;;;;;;15.55;8.27;;;;;;;;;;5110655;28;20027;-67
2021/10/01 01:46:01;;;;;;;12.88;8.35;;;;;;;;;;5111240;28;20027;-67
2021/10/01 01:48:28;;;;;;;14.27;8.23;;;;;;;;;;5110965;28;20469;-68
2021/10/01 01:50:56;;;;;;;19.45;8.75;;;;;;;;;;5110736;28;20129;-68
2021/10/01 01:53:22;;;;;;;14.65;8.70;;;;;;;;;;5111216;28;20023;-69
2021/10/01 01:55:49;;;;;;;12.88;8.32;;;;;;;;;;5109137;28;20015;-68
2021/10/01 01:58:16;;;;;;;11.65;7.60;;;;;;;;;;5110745;28;20059;-69
2021/10/01 02:00:43;;;;;;;12.00;7.78;;;;;;;;;;5110735;28;20016;-68
2021/10/01 02:03:09;;;;;;;13.35;7.97;;;;;;;;;;5110418;28;20088;-68
2021/10/01 02:05:36;;;;;;;15.75;8.07;;;;;;;;;;5110653;28;20073;-68
2021/10/01 02:08:02;;;;;;;12.90;7.88;;;;;;;;;;5110556;28;20048;-68
2021/10/01 02:10:32;;;;;;;14.38;8.32;;;;;;;;;;5110189;28;20027;-68
2021/10/01 02:14:29;;;;;;;14.02;7.82;;;;;;;;;;5111589;27;20389;-67
2021/10/01 02:16:56;;;;;;;12.73;8.80;;;;;;;;;;5111000;28;20032;-69
2021/10/01 02:19:23;;;;;;;12.68;7.93;;;;;;;;;;5109870;28;20024;-69
2021/10/01 02:22:22;;;;;;;11.82;7.53;;;;;;;;;;5111932;27;20508;-68
2021/10/01 02:28:06;;;;;;;14.23;7.70;;;;;;;;;;5111943;27;20458;-68
2021/10/01 02:30:34;;;;;;;16.15;7.18;;;;;;;;;;5111252;28;20428;-68
2021/10/01 02:33:41;;;;;;;12.65;7.57;;;;;;;;;;5111126;27;20924;-68
2021/10/01 02:36:08;;;;;;;12.73;7.15;;;;;;;;;;5111193;28;20027;-68
2021/10/01 02:43:38;;;;;;;9.73;5.95;;;;;;;;;;5091209;28;20311;-69
2021/10/01 02:48:46;;;;;;;17.52;8.15;;;;;;;;;;5070665;28;20465;-68
2021/10/01 02:51:15;;;;;;;14.00;7.93;;;;;;;;;;5052697;28;20381;-67
2021/10/01 02:53:53;;;;;;;9.32;6.50;;;;;;;;;;5070183;28;20025;-67
2021/10/01 02:57:02;;;;;;;11.40;6.63;;;;;;;;;;5131933;27;20812;-70
2021/10/01 02:59:30;;;;;;;12.95;6.53;;;;;;;;;;5096789;28;20036;-68
2021/10/01 03:01:58;;;;;;;10.80;7.13;;;;;;;;;;5111336;28;20491;-69
2021/10/01 03:05:03;;;;;;;10.07;6.07;;;;;;;;;;5111266;27;21037;-67
2021/10/01 03:10:52;;;;;;;10.93;6.75;;;;;;;;;;5111155;27;20838;-67
2021/10/01 03:13:22;;;;;;;12.52;7.32;;;;;;;;;;5110807;28;20529;-67
2021/10/01 03:15:59;;;;;;;12.63;7.47;;;;;;;;;;5109872;28;20039;-67
2021/10/01 03:19:26;;;;;;;10.50;6.25;;;;;;;;;;5111769;27;20392;-68
2021/10/01 03:21:53;;;;;;;11.43;7.57;;;;;;;;;;5109473;28;20028;-68
2021/10/01 03:24:21;;;;;;;15.52;7.78;;;;;;;;;;5111100;28;20505;-68
2021/10/01 03:26:47;;;;;;;11.10;7.28;;;;;;;;;;5111248;28;20034;-68
2021/10/01 03:30:21;;;;;;;12.45;7.00;;;;;;;;;;5111256;27;20873;-67
2021/10/01 03:32:47;;;;;;;11.00;6.65;;;;;;;;;;5111104;28;20099;-67
2021/10/01 03:37:48;;;;;;;10.25;6.65;;;;;;;;;;5111651;27;20477;-67
2021/10/01 03:40:41;;;;;;;15.05;6.72;;;;;;;;;;5111666;27;20977;-67
2021/10/01 03:43:35;;;;;;;12.48;7.03;;;;;;;;;;5111625;27;20888;-67
2021/10/01 03:46:01;;;;;;;11.68;7.20;;;;;;;;;;5111143;28;20084;-67
2021/10/01 03:48:28;;;;;;;13.05;7.88;;;;;;;;;;5109415;28;20444;-67
2021/10/01 03:50:54;;;;;;;12.13;6.80;;;;;;;;;;5111191;28;20020;-67
2021/10/01 03:54:12;;;;;;;14.38;7.22;;;;;;;;;;5111268;27;20819;-67
2021/10/01 03:56:38;;;;;;;12.52;7.15;;;;;;;;;;5110975;28;20107;-69
2021/10/01 03:59:05;;;;;;;9.63;5.60;;;;;;;;;;5111623;28;20020;-67
2021/10/01 04:01:31;;;;;;;11.18;6.03;;;;;;;;;;5111400;28;20019;-67
2021/10/01 04:03:57;;;;;;;11.65;6.78;;;;;;;;;;5126487;28;20035;-69
2021/10/01 04:06:23;;;;;;;13.90;7.72;;;;;;;;;;5111096;28;20023;-69
2021/10/01 04:10:34;;;;;;;13.60;7.18;;;;;;;;;;5111361;27;20465;-69
2021/10/01 04:13:00;;;;;;;9.35;6.10;;;;;;;;;;5111322;28;20093;-69
2021/10/01 04:15:26;;;;;;;9.13;6.15;;;;;;;;;;5127129;28;20024;-68
2021/10/01 04:19:53;;;;;;;10.70;7.05;;;;;;;;;;5111785;27;20460;-68
2021/10/01 04:22:19;;;;;;;9.95;6.30;;;;;;;;;;5109895;28;20035;-69
2021/10/01 04:26:22;;;;;;;9.43;5.82;;;;;;;;;;5091566;27;20397;-72
2021/10/01 04:28:48;;;;;;;9.68;5.97;;;;;;;;;;5090922;28;20380;-69
2021/10/01 04:33:13;;;;;;;12.18;6.95;;;;;;;;;;5070809;28;20465;-70
2021/10/01 04:35:40;;;;;;;13.60;6.85;;;;;;;;;;5071089;28;20357;-68
2021/10/01 04:38:06;;;;;;;10.07;6.60;;;;;;;;;;5070239;28;20840;-68
2021/10/01 04:40:33;;;;;;;11.77;7.43;;;;;;;;;;5070595;28;20104;-68
2021/10/01 04:42:59;;;;;;;11.07;6.53;;;;;;;;;;5070480;28;20020;-68
2021/10/01 04:45:26;;;;;;;12.45;7.20;;;;;;;;;;5070086;28;20029;-68
2021/10/01 04:49:37;;;;;;;15.05;7.32;;;;;;;;;;5111384;27;20450;-67
2021/10/01 04:52:04;;;;;;;12.73;6.65;;;;;;;;;;5110883;28;20024;-69
2021/10/01 04:54:30;;;;;;;12.75;7.88;;;;;;;;;;5111316;28;20484;-70
2021/10/01 04:56:56;;;;;;;10.38;6.85;;;;;;;;;;5111142;28;20080;-69
2021/10/01 04:59:23;;;;;;;11.48;6.68;;;;;;;;;;5110657;28;20073;-69
2021/10/01 05:05:09;;;;;;;11.35;6.22;;;;;;;;;;5111984;27;20508;-69
2021/10/01 05:09:34;;;;;;;9.15;5.80;;;;;;;;;;5111509;27;20392;-68
2021/10/01 05:12:00;;;;;;;10.00;6.45;;;;;;;;;;5109605;28;20097;-69
2021/10/01 05:15:22;;;;;;;13.77;7.15;;;;;;;;;;5111213;27;20389;-69
2021/10/01 05:17:49;;;;;;;10.35;6.80;;;;;;;;;;5106802;28;20040;-69
2021/10/01 05:22:49;;;;;;;9.48;5.75;;;;;;;;;;5110908;27;20409;-71
2021/10/01 05:25:16;;;;;;;9.55;6.38;;;;;;;;;;5110525;28;20476;-71
2021/10/01 05:29:25;;;;;;;10.02;5.75;;;;;;;;;;5111100;27;20477;-72
2021/10/01 05:31:51;;;;;;;12.02;5.97;;;;;;;;;;5111038;28;20027;-71
2021/10/01 05:34:18;;;;;;;10.02;6.18;;;;;;;;;;5109809;28;20023;-71
2021/10/01 05:36:45;;;;;;;10.70;5.85;;;;;;;;;;5109209;28;20062;-70
2021/10/01 05:40:35;;;;;;;12.30;6.18;;;;;;;;;;5130872;27;20319;-72
2021/10/01 05:43:02;;;;;;;12.02;6.63;;;;;;;;;;5092461;28;20063;-71
2021/10/01 05:45:28;;;;;;;9.02;5.85;;;;;;;;;;5092808;28;20031;-72
2021/10/01 05:49:42;;;;;;;12.13;6.28;;;;;;;;;;5110770;27;20396;-71
2021/10/01 05:54:43;;;;;;;10.40;5.28;;;;;;;;;;5108156;28;20092;-72
2021/10/01 05:58:28;;;;;;;10.18;5.82;;;;;;;;;;5108621;27;20476;-69
2021/10/01 06:00:57;;;;;;;12.85;6.30;;;;;;;;;;5108879;28;20057;-70
2021/10/01 06:05:41;;;;;;;10.80;5.22;;;;;;;;;;5109230;27;20495;-70
2021/10/01 06:08:07;;;;;;;10.02;5.88;;;;;;;;;;5109216;28;20028;-70
2021/10/01 06:10:46;;;;;;;12.52;6.13;;;;;;;;;;5108304;27;20730;-69
2021/10/01 06:13:55;;;;;;;10.60;6.15;;;;;;;;;;5068093;28;20387;-70
2021/10/01 06:16:21;;;;;;;10.20;5.40;;;;;;;;;;5063392;28;20029;-66
2021/10/01 06:18:47;;;;;;;8.27;5.43;;;;;;;;;;5067539;28;20032;-66
2021/10/01 06:21:13;;;;;;;10.77;6.05;;;;;;;;;;5051028;28;20017;-68
2021/10/01 06:24:45;;;;;;;9.05;5.90;;;;;;;;;;5110207;27;20474;-67
2021/10/01 06:27:14;;;;;;;10.25;5.50;;;;;;;;;;5109603;28;20438;-68
2021/10/01 06:29:40;;;;;;;8.38;5.40;;;;;;;;;;5106077;28;20026;-67
2021/10/01 06:34:33;;;;;;;9.30;5.65;;;;;;;;;;5109124;27;20389;-69
2021/10/01 06:36:59;;;;;;;13.45;6.45;;;;;;;;;;5109192;28;20023;-68
2021/10/01 06:39:25;;;;;;;11.50;6.50;;;;;;;;;;5109900;28;20100;-68
2021/10/01 06:41:51;;;;;;;9.32;5.57;;;;;;;;;;5107325;28;20027;-69
2021/10/01 06:47:05;;;;;;;10.35;5.78;;;;;;;;;;5109503;27;20458;-68
2021/10/01 06:49:44;;;;;;;9.75;6.20;;;;;;;;;;5108388;28;20031;-69
2021/10/01 08:19:22;;;;;;;12.77;5.97;;;;;;;;;;5049474;28;20048;-73
2021/10/01 08:21:49;;;;;;;10.40;5.35;;;;;;;;;;5049749;28;20025;-73
2021/10/01 08:24:50;;;;;;;10.98;6.13;;;;;;;;;;5108453;27;20892;-71
2021/10/01 08:27:16;;;;;;;10.77;5.72;;;;;;;;;;5108694;28;20394;-73
2021/10/01 08:29:43;;;;;;;8.40;5.00;;;;;;;;;;5107284;28;20024;-71
2021/10/01 08:32:09;;;;;;;9.80;5.00;;;;;;;;;;5106237;28;20030;-72
2021/10/01 08:34:42;;;;;;;10.05;4.85;;;;;;;;;;5108646;28;20485;-73
2021/10/01 08:37:09;;;;;;;10.00;5.80;;;;;;;;;;5107127;28;20059;-70
2021/10/01 08:41:55;;;;;;;9.45;5.47;;;;;;;;;;5110677;27;20916;-67
2021/10/01 08:44:24;;;;;;;10.88;6.20;;;;;;;;;;5109286;28;20085;-63
2021/10/01 08:46:50;;;;;;;8.45;5.50;;;;;;;;;;5125022;28;20686;-64
2021/10/01 08:49:17;;;;;;;11.95;5.60;;;;;;;;;;5107021;28;20054;-64
2021/10/01 08:51:44;;;;;;;12.13;5.85;;;;;;;;;;5103752;28;20029;-64
2021/10/01 09:00:22;;;;;;;8.65;5.55;;;;;;;;;;5111007;27;20396;-66
2021/10/01 09:04:55;;;;;;;14.27;6.32;;;;;;;;;;5065771;28;20910;-65
2021/10/01 09:07:25;;;;;;;10.18;5.63;;;;;;;;;;5064703;28;20025;-67
2021/10/01 09:09:55;;;;;;;8.85;5.32;;;;;;;;;;5067594;28;20505;-67
2021/10/01 09:12:23;;;;;;;12.88;6.07;;;;;;;;;;5067489;28;20090;-67
2021/10/01 09:14:54;;;;;;;11.60;5.38;;;;;;;;;;5067512;28;20035;-67
2021/10/01 09:17:27;;;;;;;9.30;5.13;;;;;;;;;;5066249;28;20086;-67
2021/10/01 09:19:55;;;;;;;12.32;5.45;;;;;;;;;;5066371;28;20087;-65
2021/10/01 09:22:24;;;;;;;9.77;4.78;;;;;;;;;;5064202;28;20044;-65
2021/10/01 09:24:50;;;;;;;9.75;5.05;;;;;;;;;;5067568;28;20035;-65
2021/10/01 09:27:17;;;;;;;10.57;5.28;;;;;;;;;;5063976;28;20071;-65
2021/10/01 09:29:59;;;;;;;12.00;5.47;;;;;;;;;;5158780;27;20448;-64
2021/10/01 09:32:25;;;;;;;10.43;5.47;;;;;;;;;;5150669;27;20423;-64
2021/10/01 09:36:07;;;;;;;7.30;4.20;;;;;;;;;;5069813;27;20875;-62
2021/10/01 09:39:28;;;;;;;8.18;5.22;;;;;;;;;;5109612;27;20385;-63
2021/10/01 09:41:57;;;;;;;12.60;5.22;;;;;;;;;;5108851;28;20384;-64
2021/10/01 09:46:54;;;;;;;10.57;4.43;;;;;;;;;;5109649;27;20884;-64
2021/10/01 09:51:47;;;;;;;9.10;4.40;;;;;;;;;;5110676;27;20873;-66
2021/10/01 09:54:15;;;;;;;9.38;4.25;;;;;;;;;;5109946;28;20035;-69
2021/10/01 09:56:42;;;;;;;10.15;4.28;;;;;;;;;;5107098;28;20500;-69
2021/10/01 09:59:09;;;;;;;9.40;4.30;;;;;;;;;;5109099;28;20728;-66
2021/10/01 10:01:36;;;;;;;8.70;3.95;;;;;;;;;;5110095;28;20035;-68
2021/10/01 10:04:21;;;;;;;9.85;4.70;;;;;;;;;;5110478;28;20098;-67
2021/10/01 10:06:47;;;;;;;11.52;4.53;;;;;;;;;;5110165;28;20020;-67
2021/10/01 10:09:14;;;;;;;6.97;4.00;;;;;;;;;;5108329;28;20024;-67
2021/10/01 10:12:00;;;;;;;6.75;3.70;;;;;;;;;;5110186;27;20442;-67
2021/10/01 10:15:34;;;;;;;7.63;3.58;;;;;;;;;;5110266;27;20919;-67
2021/10/01 10:18:39;;;;;;;8.38;4.65;;;;;;;;;;5107809;27;20604;-67
2021/10/01 10:21:06;;;;;;;9.95;4.15;;;;;;;;;;5086555;28;20461;-67
2021/10/01 10:23:32;;;;;;;11.30;4.43;;;;;;;;;;5089759;28;20025;-67
2021/10/01 10:25:58;;;;;;;7.85;3.33;;;;;;;;;;5084877;28;20092;-68
2021/10/01 10:28:24;;;;;;;9.70;3.38;;;;;;;;;;5068692;28;20037;-68
2021/10/01 10:30:55;;;;;;;6.65;3.25;;;;;;;;;;5067947;28;20073;-68
2021/10/01 10:33:40;;;;;;;5.80;2.83;;;;;;;;;;5068195;28;20021;-68
2021/10/01 10:36:25;;;;;;;8.73;3.22;;;;;;;;;;5086801;28;20028;-67
2021/10/01 10:38:51;;;;;;;6.85;3.65;;;;;;;;;;5085484;28;20542;-67
2021/10/01 10:41:21;;;;;;;5.95;3.08;;;;;;;;;;5086883;28;20066;-68
2021/10/01 10:43:48;;;;;;;8.25;4.10;;;;;;;;;;5086662;28;20544;-67
2021/10/01 10:46:32;;;;;;;14.00;3.83;;;;;;;;;;5088045;28;20472;-69
2021/10/01 10:50:44;;;;;;;14.15;4.00;;;;;;;;;;5108261;27;20920;-66
2021/10/01 10:53:16;;;;;;;9.30;4.20;;;;;;;;;;5105223;28;20027;-66
2021/10/01 10:55:51;;;;;;;10.07;4.32;;;;;;;;;;5106951;28;20023;-71
2021/10/01 10:58:50;;;;;;;8.45;4.85;;;;;;;;;;5109974;27;20397;-70
2021/10/01 11:03:19;;;;;;;9.02;5.32;;;;;;;;;;5110601;27;20520;-72
2021/10/01 11:05:45;;;;;;;11.90;5.15;;;;;;;;;;5108383;28;20020;-71
2021/10/01 11:08:22;;;;;;;10.07;5.25;;;;;;;;;;5109548;28;20050;-69
2021/10/01 11:10:50;;;;;;;11.70;4.95;;;;;;;;;;5110386;28;20027;-71
2021/10/01 11:14:15;;;;;;;13.50;5.43;;;;;;;;;;5110447;27;20408;-71
2021/10/01 11:16:59;;;;;;;9.25;4.93;;;;;;;;;;5110884;27;20377;-70
2021/10/01 11:19:49;;;;;;;11.52;5.28;;;;;;;;;;5110416;27;20840;-71
2021/10/01 11:22:55;;;;;;;9.18;4.70;;;;;;;;;;5110778;27;20325;-71
2021/10/01 11:25:23;;;;;;;9.57;4.30;;;;;;;;;;5110689;28;20028;-70
2021/10/01 11:28:12;;;;;;;9.90;4.25;;;;;;;;;;5111061;27;20509;-71
2021/10/01 11:30:39;;;;;;;11.57;4.90;;;;;;;;;;5110068;28;20035;-72
2021/10/01 11:33:09;;;;;;;8.30;4.22;;;;;;;;;;5110372;28;20020;-74
2021/10/01 11:35:44;;;;;;;9.15;4.57;;;;;;;;;;5111218;28;20032;-75
2021/10/01 11:38:18;;;;;;;11.52;5.22;;;;;;;;;;5112480;28;20024;-73
2021/10/01 11:40:46;;;;;;;11.13;5.55;;;;;;;;;;5109469;28;20523;-71
2021/10/01 11:43:13;;;;;;;10.75;4.85;;;;;;;;;;5110597;28;20538;-72
2021/10/01 11:45:39;;;;;;;9.40;5.07;;;;;;;;;;5110551;28;20034;-72
2021/10/01 11:48:06;;;;;;;10.10;6.18;;;;;;;;;;5110165;28;20035;-72
2021/10/01 11:54:57;;;;;;;12.70;4.95;;;;;;;;;;5110442;27;20416;-73
2021/10/01 11:58:19;;;;;;;8.70;5.30;;;;;;;;;;5108259;27;20388;-72
2021/10/01 12:02:37;;;;;;;11.57;4.75;;;;;;;;;;5109545;27;20420;-74
2021/10/01 12:05:22;;;;;;;8.10;4.28;;;;;;;;;;5109665;28;20476;-75
2021/10/01 12:08:12;;;;;;;9.88;4.97;;;;;;;;;;5110382;27;20858;-73
2021/10/01 12:10:40;;;;;;;9.68;5.43;;;;;;;;;;5110201;28;20073;-73
2021/10/01 12:13:27;;;;;;;9.57;4.72;;;;;;;;;;5111015;28;20472;-73
2021/10/01 12:15:57;;;;;;;8.25;4.47;;;;;;;;;;5108976;28;20111;-72
2021/10/01 12:19:35;;;;;;;8.13;4.47;;;;;;;;;;5069112;28;20316;-73
2021/10/01 12:24:06;;;;;;;9.93;4.47;;;;;;;;;;5110655;27;20516;-72
2021/10/01 12:28:10;;;;;;;9.70;5.20;;;;;;;;;;5110914;27;20957;-71
2021/10/01 12:30:36;;;;;;;10.27;4.88;;;;;;;;;;5110232;28;20499;-71
2021/10/01 12:35:22;;;;;;;7.65;4.43;;;;;;;;;;5111098;27;20415;-73
2021/10/01 12:37:49;;;;;;;9.50;4.72;;;;;;;;;;5110652;28;20495;-73
2021/10/01 12:40:15;;;;;;;10.40;4.10;;;;;;;;;;5110992;28;20023;-74
2021/10/01 12:43:56;;;;;;;8.88;5.32;;;;;;;;;;5089816;27;20398;-70
2021/10/01 12:46:33;;;;;;;8.80;4.88;;;;;;;;;;5110788;27;20469;-70
2021/10/01 12:49:12;;;;;;;10.05;5.40;;;;;;;;;;5110989;28;20028;-69
2021/10/01 12:55:15;;;;;;;8.27;4.45;;;;;;;;;;5111317;27;20446;-69
2021/10/01 12:57:45;;;;;;;11.93;3.97;;;;;;;;;;5110707;28;20031;-69
2021/10/01 13:00:13;;;;;;;7.85;4.40;;;;;;;;;;5108624;28;20024;-67
2021/10/01 13:02:41;;;;;;;8.75;4.50;;;;;;;;;;5091660;28;20485;-71
2021/10/01 13:05:09;;;;;;;8.38;3.90;;;;;;;;;;5110263;28;20099;-71
2021/10/01 13:07:39;;;;;;;9.50;4.55;;;;;;;;;;5109324;28;20035;-71
2021/10/01 13:11:51;;;;;;;7.57;4.03;;;;;;;;;;5108835;27;20403;-71
2021/10/01 13:14:17;;;;;;;9.05;4.38;;;;;;;;;;5109027;28;20043;-71
2021/10/01 13:16:43;;;;;;;8.85;4.78;;;;;;;;;;5108879;28;20434;-71
2021/10/01 13:19:14;;;;;;;10.82;4.18;;;;;;;;;;5108624;28;20030;-72
2021/10/01 13:21:54;;;;;;;10.85;4.35;;;;;;;;;;5108722;28;20024;-72
2021/10/01 13:24:25;;;;;;;8.80;4.07;;;;;;;;;;5108885;28;20020;-72
2021/10/01 13:26:51;;;;;;;7.75;4.18;;;;;;;;;;5109951;28;20028;-72
2021/10/01 13:29:18;;;;;;;10.90;4.32;;;;;;;;;;5110836;28;20040;-72
2021/10/01 13:31:45;;;;;;;10.32;4.45;;;;;;;;;;5109041;28;20077;-71
2021/10/01 13:34:12;;;;;;;10.25;4.65;;;;;;;;;;5107391;28;20404;-72
2021/10/01 13:36:38;;;;;;;15.57;5.90;;;;;;;;;;5110651;28;20020;-72
2021/10/01 13:41:26;;;;;;;7.68;4.82;;;;;;;;;;5110711;27;20416;-71
2021/10/01 13:43:53;;;;;;;8.30;4.18;;;;;;;;;;5110962;28;20032;-72
2021/10/01 13:46:20;;;;;;;11.52;5.25;;;;;;;;;;5110667;28;20592;-72
2021/10/01 13:48:46;;;;;;;11.50;6.57;;;;;;;;;;5111284;28;20059;-72
2021/10/01 13:51:13;;;;;;;10.48;6.38;;;;;;;;;;5105144;28;20027;-72
2021/10/01 13:55:21;;;;;;;13.20;5.63;;;;;;;;;;5172721;27;20705;-71
2021/10/01 13:57:47;;;;;;;14.70;5.70;;;;;;;;;;5152266;27;20107;-71
2021/10/01 14:00:14;;;;;;;8.48;3.95;;;;;;;;;;5152433;27;20046;-72
2021/10/01 14:02:42;;;;;;;8.70;4.72;;;;;;;;;;5133687;27;20019;-72
2021/10/01 14:05:09;;;;;;;10.40;5.00;;;;;;;;;;5152209;27;20023;-70
2021/10/01 14:07:38;;;;;;;9.77;5.07;;;;;;;;;;5151819;27;20421;-72
2021/10/01 14:10:04;;;;;;;12.38;5.22;;;;;;;;;;5152088;27;20022;-71
2021/10/01 14:12:31;;;;;;;10.48;3.85;;;;;;;;;;5152240;27;20026;-72
2021/10/01 14:14:57;;;;;;;11.88;4.30;;;;;;;;;;5151564;27;20053;-72
2021/10/01 14:17:24;;;;;;;8.93;3.80;;;;;;;;;;5151968;27;20019;-70
2021/10/01 14:19:51;;;;;;;9.38;3.92;;;;;;;;;;5133279;27;20371;-73
2021/10/01 14:22:17;;;;;;;9.65;4.35;;;;;;;;;;5151446;27;20023;-72
2021/10/01 14:24:44;;;;;;;12.32;6.53;;;;;;;;;;5151800;27;20027;-72
2021/10/01 14:27:10;;;;;;;9.25;4.47;;;;;;;;;;5133122;27;20106;-71
2021/10/01 14:29:36;;;;;;;8.90;4.35;;;;;;;;;;5151223;27;20197;-72
2021/10/01 14:32:03;;;;;;;9.02;4.95;;;;;;;;;;5151760;27;20023;-72
2021/10/01 14:34:29;;;;;;;8.25;4.88;;;;;;;;;;5151399;27;20498;-71
2021/10/01 14:37:59;;;;;;;9.38;5.43;;;;;;;;;;5089348;27;1873036;-72
2021/10/01 14:40:25;;;;;;;11.95;6.30;;;;;;;;;;5131740;27;20100;-72
2021/10/01 14:43:36;;;;;;;11.25;5.40;;;;;;;;;;5111161;27;20928;-73
2021/10/01 14:46:02;;;;;;;10.38;5.30;;;;;;;;;;5111217;28;20480;-71
2021/10/01 14:48:29;;;;;;;11.63;5.60;;;;;;;;;;5111038;28;20020;-72
2021/10/01 14:50:55;;;;;;;10.43;5.47;;;;;;;;;;5110773;28;20034;-72
2021/10/01 14:54:17;;;;;;;10.13;4.82;;;;;;;;;;5112130;27;20400;-73
2021/10/01 14:56:43;;;;;;;9.48;5.15;;;;;;;;;;5110837;28;20024;-73
2021/10/01 15:01:31;;;;;;;8.60;4.47;;;;;;;;;;5111515;27;20477;-72
2021/10/01 15:07:53;;;;;;;14.68;4.70;;;;;;;;;;5111347;27;20674;-72
2021/10/01 15:11:58;;;;;;;10.93;4.88;;;;;;;;;;5111132;27;20974;-72
2021/10/01 15:14:25;;;;;;;7.45;3.97;;;;;;;;;;5111169;28;20392;-71
2021/10/01 15:16:51;;;;;;;9.85;4.55;;;;;;;;;;5111101;28;20023;-72
2021/10/01 15:19:17;;;;;;;13.18;5.50;;;;;;;;;;5110661;28;20365;-72
2021/10/01 15:24:41;;;;;;;10.50;4.70;;;;;;;;;;5110899;27;20776;-73
2021/10/01 15:27:07;;;;;;;11.27;5.03;;;;;;;;;;5111179;28;20115;-72
2021/10/01 15:29:52;;;;;;;8.07;4.40;;;;;;;;;;5110921;28;20455;-73
2021/10/01 15:32:18;;;;;;;7.63;4.55;;;;;;;;;;5110621;28;20095;-73
2021/10/01 15:34:45;;;;;;;7.43;3.80;;;;;;;;;;5109774;28;20387;-72
2021/10/01 15:37:11;;;;;;;16.52;5.68;;;;;;;;;;5111048;28;20032;-72
2021/10/01 15:39:37;;;;;;;6.75;4.25;;;;;;;;;;5110647;28;20026;-72
2021/10/01 15:42:03;;;;;;;8.60;4.38;;;;;;;;;;5111020;28;20024;-72
2021/10/01 15:45:57;;;;;;;7.93;4.22;;;;;;;;;;5131408;27;20305;-72
2021/10/01 15:48:24;;;;;;;11.48;4.90;;;;;;;;;;5111306;28;20476;-72
2021/10/01 15:51:41;;;;;;;7.95;4.85;;;;;;;;;;5111418;27;20465;-73
2021/10/01 15:54:07;;;;;;;10.68;4.50;;;;;;;;;;5110938;28;20023;-72
2021/10/01 15:58:38;;;;;;;9.00;6.05;;;;;;;;;;5111511;27;20397;-72
2021/10/01 16:03:40;;;;;;;13.57;6.40;;;;;;;;;;5111212;27;20420;-71
2021/10/01 16:06:06;;;;;;;14.73;6.10;;;;;;;;;;5126966;28;20019;-71
2021/10/01 16:08:32;;;;;;;13.52;6.15;;;;;;;;;;5110725;28;20480;-71
2021/10/01 16:10:59;;;;;;;13.32;7.80;;;;;;;;;;5111066;28;20419;-71
2021/10/01 16:13:55;;;;;;;12.68;6.07;;;;;;;;;;5111093;27;20989;-71
2021/10/01 16:16:21;;;;;;;8.88;5.00;;;;;;;;;;5126840;28;20388;-71
2021/10/01 16:18:47;;;;;;;11.57;5.28;;;;;;;;;;5111076;28;20440;-71
2021/10/01 16:21:14;;;;;;;10.57;5.38;;;;;;;;;;5110793;28;20031;-71
2021/10/01 16:23:40;;;;;;;11.65;5.50;;;;;;;;;;5110706;28;20099;-71
2021/10/01 16:28:04;;;;;;;12.10;6.50;;;;;;;;;;5111157;27;20310;-72
2021/10/01 16:33:28;;;;;;;10.50;4.82;;;;;;;;;;5091423;27;20388;-70
2021/10/01 16:39:19;;;;;;;9.50;5.28;;;;;;;;;;5112030;27;20408;-71
2021/10/01 16:41:46;;;;;;;9.25;5.88;;;;;;;;;;5126831;28;20028;-71
2021/10/01 16:44:16;;;;;;;10.45;5.40;;;;;;;;;;5110647;28;20357;-70
2021/10/01 16:46:43;;;;;;;11.13;4.63;;;;;;;;;;5111141;28;20016;-71
2021/10/01 16:49:09;;;;;;;10.93;5.15;;;;;;;;;;5126436;28;20031;-71
2021/10/01 16:52:47;;;;;;;11.52;6.70;;;;;;;;;;5111499;27;20392;-71
2021/10/01 16:55:15;;;;;;;10.07;5.72;;;;;;;;;;5111128;28;20043;-71
2021/10/01 16:57:41;;;;;;;10.82;5.25;;;;;;;;;;5110734;28;20353;-71
2021/10/01 17:01:05;;;;;;;11.30;6.18;;;;;;;;;;5111691;27;20385;-72
2021/10/01 17:03:55;;;;;;;7.93;5.20;;;;;;;;;;5111243;27;20513;-71
2021/10/01 17:06:22;;;;;;;9.43;5.88;;;;;;;;;;5111162;28;20035;-72
2021/10/01 17:08:48;;;;;;;11.38;5.65;;;;;;;;;;5111085;28;20103;-71
2021/10/01 17:11:14;;;;;;;11.35;5.72;;;;;;;;;;5110695;28;20058;-71
2021/10/01 17:15:42;;;;;;;9.65;5.88;;;;;;;;;;5111973;27;20420;-72
2021/10/01 17:18:08;;;;;;;12.52;6.80;;;;;;;;;;5110752;28;20484;-72
2021/10/01 17:21:17;;;;;;;12.25;7.53;;;;;;;;;;5111637;27;20489;-72
2021/10/01 17:23:43;;;;;;;14.10;6.75;;;;;;;;;;5109819;28;20034;-70
2021/10/01 17:26:10;;;;;;;11.18;7.10;;;;;;;;;;5110654;28;20028;-70
2021/10/01 17:28:36;;;;;;;10.38;7.18;;;;;;;;;;5111153;28;20024;-71
2021/10/01 17:33:27;;;;;;;11.55;6.30;;;;;;;;;;5111396;27;20389;-72
2021/10/01 17:38:11;;;;;;;9.73;5.10;;;;;;;;;;5111145;27;20380;-71
2021/10/01 17:44:10;;;;;;;9.20;4.78;;;;;;;;;;5070873;28;20384;-72
2021/10/01 17:46:36;;;;;;;7.03;3.90;;;;;;;;;;5069892;28;20104;-70
2021/10/01 17:49:03;;;;;;;6.75;4.32;;;;;;;;;;5070682;28;20024;-68
2021/10/01 17:51:29;;;;;;;8.35;4.40;;;;;;;;;;5070629;28;20047;-70
2021/10/01 17:53:56;;;;;;;10.82;5.97;;;;;;;;;;5070077;28;20107;-70
2021/10/01 17:56:22;;;;;;;10.82;5.32;;;;;;;;;;5070804;28;20366;-70
2021/10/01 17:58:49;;;;;;;12.48;7.05;;;;;;;;;;5070375;28;20025;-71
2021/10/01 18:01:15;;;;;;;9.57;6.68;;;;;;;;;;5069955;28;20028;-72
2021/10/01 18:05:17;;;;;;;13.85;7.07;;;;;;;;;;5070722;28;20915;-70
2021/10/01 18:07:44;;;;;;;10.05;6.22;;;;;;;;;;5070252;28;20025;-70
2021/10/01 18:11:37;;;;;;;10.85;5.47;;;;;;;;;;5111272;27;20392;-72
2021/10/01 18:14:04;;;;;;;8.02;4.50;;;;;;;;;;5110821;28;20028;-71
2021/10/01 18:17:35;;;;;;;9.20;4.53;;;;;;;;;;5070729;28;20391;-70
2021/10/01 18:27:40;;;;;;;7.50;4.25;;;;;;;;;;5110925;27;20397;-70
2021/10/01 18:32:32;;;;;;;9.15;4.82;;;;;;;;;;5070421;28;20892;-72
2021/10/01 18:34:58;;;;;;;10.02;4.90;;;;;;;;;;5068841;28;20120;-71
2021/10/01 18:38:57;;;;;;;6.55;4.13;;;;;;;;;;5111186;27;20454;-71
2021/10/01 18:42:13;;;;;;;11.52;4.55;;;;;;;;;;5111365;27;20462;-70
2021/10/01 18:45:12;;;;;;;9.57;4.40;;;;;;;;;;5173277;27;20310;-71
2021/10/01 18:48:56;;;;;;;11.98;5.93;;;;;;;;;;5070917;28;20416;-70
2021/10/01 18:55:41;;;;;;;13.57;7.90;;;;;;;;;;5110937;27;20385;-71
2021/10/01 19:02:22;;;;;;;13.05;6.50;;;;;;;;;;5111130;27;20481;-70
2021/10/01 19:04:49;;;;;;;16.52;6.78;;;;;;;;;;5110835;28;20103;-69
2021/10/01 19:10:49;;;;;;;9.95;4.85;;;;;;;;;;5111004;27;20384;-71
2021/10/01 19:13:16;;;;;;;10.98;5.28;;;;;;;;;;5111142;28;20028;-71
2021/10/01 19:15:42;;;;;;;8.88;4.93;;;;;;;;;;5109973;28;20016;-71
2021/10/01 19:19:44;;;;;;;12.77;4.88;;;;;;;;;;5111355;27;20831;-70
2021/10/01 19:22:12;;;;;;;9.75;4.90;;;;;;;;;;5109748;28;20377;-69
2021/10/01 19:30:43;;;;;;;9.15;5.68;;;;;;;;;;5109970;27;20533;-72
2021/10/01 19:33:09;;;;;;;10.45;5.88;;;;;;;;;;5111231;28;20028;-72
2021/10/01 19:37:24;;;;;;;11.20;4.88;;;;;;;;;;5111525;27;20385;-71
2021/10/01 19:39:55;;;;;;;11.50;5.38;;;;;;;;;;5108918;28;20027;-72
2021/10/01 19:42:22;;;;;;;8.20;5.68;;;;;;;;;;5107772;28;20020;-71
2021/10/01 19:44:48;;;;;;;8.85;5.03;;;;;;;;;;5108750;28;20016;-71
2021/10/01 19:47:15;;;;;;;12.00;5.75;;;;;;;;;;5107653;28;20031;-71
2021/10/01 19:49:41;;;;;;;12.27;6.00;;;;;;;;;;5108994;28;20094;-71
2021/10/01 19:53:01;;;;;;;10.43;5.55;;;;;;;;;;5109102;27;20814;-70